Etusivu
METAR-TAF:

METAR-TAF

Lentoasemat :

Hammerfest, Norja

Leveyspiiri: 70-40N, Pituuspiiri: 023-40E, korkeus merenpinnasta: 8 m

Tämänhetkinen sää

Tämä raportti tehtiin 37 minuuttia sitten, kello 09.20 UTC
Tuuli 6 kn luoteesta, vaihdellen lännen/lounaan ja koillisen välillä
Lämpötila -1°C
Kosteus 69%
Ilmanpaine 1018 hPa
Näkyvyys 10 km tai enemmän

METAR: ENHF 170920Z AUTO 31006KT 240V050 9999 SCT120/// M01/M06 Q1018 RMK WIND 1254FT 19028G38KT

Aika: 10:57 (09:57 UTC)

Sääennuste

Tämä raportti tehtiin 22 tuntia ja 57 minuuttia sitten, kello 11.00 UTC
Ennuste voimassa 16. päivästä klo 12 UTC - 16. päivään klo 15 UTC
Tuuli 5 kn idästä
Näkyvyys 10 km tai enemmän
Muutamia pilviä 1200 ft:n korkeudessa
Hajonneita pilviä 4000 ft:n korkeudessa
Ajoittain
16. päivästä klo 13 UTC - 16. päivään klo 15 UTC
Tuuli 12 kn kaakosta

TAF: ENHF 161100Z 1612/1615 08005KT 9999 FEW012 BKN040 TEMPO 1613/1615 14012KT

Säähavainnot ja -ennusteet yli 4000 lentoasemalta (METAR- ja TAF-raportit).

Käytössä olevat sääasemat on merkitty karttaan keltaisilla ja punaisilla pisteillä.

Aseta hiiri pisteen päälle nähdäksesi sääaseman nimen.

Klikkaa sitten nähdäksesi säähavainnot ja -ennusteet.

Kartan vaihtaminen: klikkaa mustalla rastilla varustettuja vihreitä pisteitä, niin voit zoomata sisään; viivalla varustettua vihreää pistettä, niin voit zoomata ulos tai vihreitä nuolia, niin pääset viereisille kartoille.


METAR-TAF: